Terminal Aerodrome Forecast
Issued by NWS King Salmon, AK

Home | Current Version | Previous Version | Text Only | Print | Product List | Glossary On
Versions: 1 2 3 4 5 6 7 8 9 10 11 12 13 14 15
000
FTAK31 PANC 292336
TAFAKN
TAF
PAKN 292336Z 3000/3024 19008KT P6SM SCT020 BKN035
     FM301200 VRB04KT P6SM VCFG FEW005 SCT025
     FM301800 12006KT P6SM SCT050=

USA.gov is the U.S. government's official web portal to all federal, state and local government web resources and services.